sensor_id;sensor_type;location;lat;lon;timestamp;pressure;altitude;pressure_sealevel;temperature
20490;BMP280;10403;54.092;12.122;2024-02-26T00:02:23;100604.22;;;5.61
20490;BMP280;10403;54.092;12.122;2024-02-26T00:04:50;100625.03;;;5.67
20490;BMP280;10403;54.092;12.122;2024-02-26T00:07:18;100623.28;;;5.63
20490;BMP280;10403;54.092;12.122;2024-02-26T00:09:45;100628.47;;;5.63
20490;BMP280;10403;54.092;12.122;2024-02-26T00:12:12;100628.44;;;5.59
20490;BMP280;10403;54.092;12.122;2024-02-26T00:14:39;100635.38;;;5.57
20490;BMP280;10403;54.092;12.122;2024-02-26T00:17:08;100642.28;;;5.57
20490;BMP280;10403;54.092;12.122;2024-02-26T00:19:35;100644.03;;;5.56
20490;BMP280;10403;54.092;12.122;2024-02-26T00:22:03;100642.28;;;5.54
20490;BMP280;10403;54.092;12.122;2024-02-26T00:24:30;100643.13;;;5.53
20490;BMP280;10403;54.092;12.122;2024-02-26T00:26:59;100637.91;;;5.50
20490;BMP280;10403;54.092;12.122;2024-02-26T00:29:26;100642.25;;;5.48
20490;BMP280;10403;54.092;12.122;2024-02-26T00:31:53;100640.50;;;5.45
20490;BMP280;10403;54.092;12.122;2024-02-26T00:34:20;100635.31;;;5.44
20490;BMP280;10403;54.092;12.122;2024-02-26T00:36:48;100641.34;;;5.43
20490;BMP280;10403;54.092;12.122;2024-02-26T00:39:15;100647.41;;;5.43
20490;BMP280;10403;54.092;12.122;2024-02-26T00:41:42;100638.75;;;5.41
20490;BMP280;10403;54.092;12.122;2024-02-26T00:44:09;100635.25;;;5.39
20490;BMP280;10403;54.092;12.122;2024-02-26T00:46:36;100641.34;;;5.38
20490;BMP280;10403;54.092;12.122;2024-02-26T00:49:04;100637.88;;;5.36
20490;BMP280;10403;54.092;12.122;2024-02-26T00:51:31;100636.13;;;5.35
20490;BMP280;10403;54.092;12.122;2024-02-26T00:53:58;100634.38;;;5.31
20490;BMP280;10403;54.092;12.122;2024-02-26T00:56:26;100626.59;;;5.28
20490;BMP280;10403;54.092;12.122;2024-02-26T00:58:53;100636.97;;;5.31
20490;BMP280;10403;54.092;12.122;2024-02-26T01:01:20;100634.38;;;5.28
20490;BMP280;10403;54.092;12.122;2024-02-26T01:03:48;100642.16;;;5.31
20490;BMP280;10403;54.092;12.122;2024-02-26T01:06:15;100650.78;;;5.30
20490;BMP280;10403;54.092;12.122;2024-02-26T01:08:43;100643.88;;;5.28
20490;BMP280;10403;54.092;12.122;2024-02-26T01:11:10;100643.00;;;5.26
20490;BMP280;10403;54.092;12.122;2024-02-26T01:13:37;100649.00;;;5.21
20490;BMP280;10403;54.092;12.122;2024-02-26T01:16:05;100653.34;;;5.24
20490;BMP280;10403;54.092;12.122;2024-02-26T01:18:32;100654.22;;;5.23
20490;BMP280;10403;54.092;12.122;2024-02-26T01:20:59;100660.25;;;5.22
20490;BMP280;10403;54.092;12.122;2024-02-26T01:23:27;100643.75;;;5.11
20490;BMP280;10403;54.092;12.122;2024-02-26T01:25:54;100661.94;;;5.20
20490;BMP280;10403;54.092;12.122;2024-02-26T01:28:21;100666.28;;;5.18
20490;BMP280;10403;54.092;12.122;2024-02-26T01:30:48;100666.25;;;5.15
20490;BMP280;10403;54.092;12.122;2024-02-26T01:33:16;100663.66;;;5.15
20490;BMP280;10403;54.092;12.122;2024-02-26T01:35:43;100662.78;;;5.13
20490;BMP280;10403;54.092;12.122;2024-02-26T01:38:10;100664.50;;;5.11
20490;BMP280;10403;54.092;12.122;2024-02-26T01:40:38;100668.81;;;5.09
20490;BMP280;10403;54.092;12.122;2024-02-26T01:43:05;100652.34;;;5.04
20490;BMP280;10403;54.092;12.122;2024-02-26T01:45:32;100665.31;;;5.05
20490;BMP280;10403;54.092;12.122;2024-02-26T01:48:00;100657.56;;;5.05
20490;BMP280;10403;54.092;12.122;2024-02-26T01:50:28;100657.53;;;5.04
20490;BMP280;10403;54.092;12.122;2024-02-26T01:52:57;100653.22;;;5.03
20490;BMP280;10403;54.092;12.122;2024-02-26T01:55:26;100654.06;;;5.02
20490;BMP280;10403;54.092;12.122;2024-02-26T01:57:54;100659.25;;;4.99
20490;BMP280;10403;54.092;12.122;2024-02-26T02:00:21;100647.06;;;4.89
20490;BMP280;10403;54.092;12.122;2024-02-26T02:02:50;100665.25;;;4.95
20490;BMP280;10403;54.092;12.122;2024-02-26T02:05:20;100660.91;;;4.94
20490;BMP280;10403;54.092;12.122;2024-02-26T02:07:48;100660.03;;;4.93
20490;BMP280;10403;54.092;12.122;2024-02-26T02:10:16;100664.38;;;4.93
20490;BMP280;10403;54.092;12.122;2024-02-26T02:12:45;100654.00;;;4.90
20490;BMP280;10403;54.092;12.122;2024-02-26T02:15:13;100660.03;;;4.89
20490;BMP280;10403;54.092;12.122;2024-02-26T02:17:40;100665.22;;;4.89
20490;BMP280;10403;54.092;12.122;2024-02-26T02:20:16;100661.72;;;4.85
20490;BMP280;10403;54.092;12.122;2024-02-26T02:22:47;100667.81;;;4.89
20490;BMP280;10403;54.092;12.122;2024-02-26T02:25:14;100667.75;;;4.84
20490;BMP280;10403;54.092;12.122;2024-02-26T02:27:43;100666.03;;;4.83
20490;BMP280;10403;54.092;12.122;2024-02-26T02:30:11;100665.13;;;4.81
20490;BMP280;10403;54.092;12.122;2024-02-26T02:32:40;100671.19;;;4.81
20490;BMP280;10403;54.092;12.122;2024-02-26T02:35:11;100675.50;;;4.79
20490;BMP280;10403;54.092;12.122;2024-02-26T02:37:38;100674.63;;;4.77
20490;BMP280;10403;54.092;12.122;2024-02-26T02:40:06;100674.63;;;4.77
20490;BMP280;10403;54.092;12.122;2024-02-26T02:42:33;100677.19;;;4.74
20490;BMP280;10403;54.092;12.122;2024-02-26T02:45:01;100687.53;;;4.73
20490;BMP280;10403;54.092;12.122;2024-02-26T02:47:28;100685.78;;;4.70
20490;BMP280;10403;54.092;12.122;2024-02-26T02:49:55;100687.47;;;4.65
20490;BMP280;10403;54.092;12.122;2024-02-26T02:52:22;100680.53;;;4.64
20490;BMP280;10403;54.092;12.122;2024-02-26T02:54:50;100682.25;;;4.62
20490;BMP280;10403;54.092;12.122;2024-02-26T02:57:17;100690.03;;;4.62
20490;BMP280;10403;54.092;12.122;2024-02-26T02:59:44;100685.69;;;4.61
20490;BMP280;10403;54.092;12.122;2024-02-26T03:02:12;100685.69;;;4.60
20490;BMP280;10403;54.092;12.122;2024-02-26T03:04:39;100677.03;;;4.58
20490;BMP280;10403;54.092;12.122;2024-02-26T03:07:06;100668.34;;;4.53
20490;BMP280;10403;54.092;12.122;2024-02-26T03:09:33;100671.75;;;4.47
20490;BMP280;10403;54.092;12.122;2024-02-26T03:12:00;100683.00;;;4.52
20490;BMP280;10403;54.092;12.122;2024-02-26T03:14:28;100686.44;;;4.48
20490;BMP280;10403;54.092;12.122;2024-02-26T03:16:55;100686.41;;;4.45
20490;BMP280;10403;54.092;12.122;2024-02-26T03:19:23;100688.97;;;4.43
20490;BMP280;10403;54.092;12.122;2024-02-26T03:21:52;100681.19;;;4.39
20490;BMP280;10403;54.092;12.122;2024-02-26T03:24:19;100686.38;;;4.42
20490;BMP280;10403;54.092;12.122;2024-02-26T03:26:47;100689.81;;;4.41
20490;BMP280;10403;54.092;12.122;2024-02-26T03:29:14;100688.09;;;4.40
20490;BMP280;10403;54.092;12.122;2024-02-26T03:31:41;100689.81;;;4.41
20490;BMP280;10403;54.092;12.122;2024-02-26T03:38:31;100691.44;;;4.31
20490;BMP280;10403;54.092;12.122;2024-02-26T03:40:59;100690.63;;;4.35
20490;BMP280;10403;54.092;12.122;2024-02-26T03:43:26;100686.28;;;4.33
20490;BMP280;10403;54.092;12.122;2024-02-26T03:45:53;100700.13;;;4.35
20490;BMP280;10403;54.092;12.122;2024-02-26T03:48:20;100697.50;;;4.32
20490;BMP280;10403;54.092;12.122;2024-02-26T03:50:48;100686.22;;;4.27
20490;BMP280;10403;54.092;12.122;2024-02-26T03:53:15;100700.06;;;4.32
20490;BMP280;10403;54.092;12.122;2024-02-26T03:55:42;100693.19;;;4.31
20490;BMP280;10403;54.092;12.122;2024-02-26T03:58:12;100693.19;;;4.31
20490;BMP280;10403;54.092;12.122;2024-02-26T04:00:39;100689.72;;;4.29
20490;BMP280;10403;54.092;12.122;2024-02-26T04:03:06;100679.22;;;4.17
20490;BMP280;10403;54.092;12.122;2024-02-26T04:05:34;100700.84;;;4.23
20490;BMP280;10403;54.092;12.122;2024-02-26T04:08:01;100712.06;;;4.24
20490;BMP280;10403;54.092;12.122;2024-02-26T04:10:28;100715.50;;;4.23
20490;BMP280;10403;54.092;12.122;2024-02-26T04:12:55;100716.38;;;4.23
20490;BMP280;10403;54.092;12.122;2024-02-26T04:15:22;100716.34;;;4.22
20490;BMP280;10403;54.092;12.122;2024-02-26T04:17:50;100707.75;;;4.20
20490;BMP280;10403;54.092;12.122;2024-02-26T04:20:17;100711.19;;;4.20
20490;BMP280;10403;54.092;12.122;2024-02-26T04:22:44;100695.47;;;4.05
20490;BMP280;10403;54.092;12.122;2024-02-26T04:25:12;100721.47;;;4.16
20490;BMP280;10403;54.092;12.122;2024-02-26T04:27:39;100732.72;;;4.18
20490;BMP280;10403;54.092;12.122;2024-02-26T04:30:07;100711.91;;;4.08
20490;BMP280;10403;54.092;12.122;2024-02-26T04:32:35;100727.50;;;4.15
20490;BMP280;10403;54.092;12.122;2024-02-26T04:35:03;100728.34;;;4.12
20490;BMP280;10403;54.092;12.122;2024-02-26T04:37:30;100737.81;;;4.08
20490;BMP280;10403;54.092;12.122;2024-02-26T04:40:01;100737.78;;;4.07
20490;BMP280;10403;54.092;12.122;2024-02-26T04:42:28;100730.81;;;4.01
20490;BMP280;10403;54.092;12.122;2024-02-26T04:44:55;100739.50;;;4.06
20490;BMP280;10403;54.092;12.122;2024-02-26T04:47:23;100733.38;;;3.98
20490;BMP280;10403;54.092;12.122;2024-02-26T04:49:51;100748.06;;;4.02
20490;BMP280;10403;54.092;12.122;2024-02-26T04:52:19;100752.38;;;4.00
20490;BMP280;10403;54.092;12.122;2024-02-26T04:54:46;100756.66;;;3.98
20490;BMP280;10403;54.092;12.122;2024-02-26T04:57:13;100747.06;;;3.93
20490;BMP280;10403;54.092;12.122;2024-02-26T04:59:40;100752.25;;;3.93
20490;BMP280;10403;54.092;12.122;2024-02-26T05:02:09;100763.56;;;3.99
20490;BMP280;10403;54.092;12.122;2024-02-26T05:04:37;100768.75;;;3.99
20490;BMP280;10403;54.092;12.122;2024-02-26T05:07:05;100747.03;;;3.88
20490;BMP280;10403;54.092;12.122;2024-02-26T05:09:33;100768.69;;;3.96
20490;BMP280;10403;54.092;12.122;2024-02-26T05:12:00;100768.69;;;3.96
20490;BMP280;10403;54.092;12.122;2024-02-26T05:14:27;100772.13;;;3.95
20490;BMP280;10403;54.092;12.122;2024-02-26T05:16:55;100766.09;;;3.95
20490;BMP280;10403;54.092;12.122;2024-02-26T05:19:23;100771.25;;;3.95
20490;BMP280;10403;54.092;12.122;2024-02-26T05:21:50;100778.19;;;3.96
20490;BMP280;10403;54.092;12.122;2024-02-26T05:24:17;100785.97;;;3.97
20490;BMP280;10403;54.092;12.122;2024-02-26T05:26:45;100785.03;;;3.92
20490;BMP280;10403;54.092;12.122;2024-02-26T05:29:15;100785.91;;;3.91
20490;BMP280;10403;54.092;12.122;2024-02-26T05:31:43;100792.84;;;3.95
20490;BMP280;10403;54.092;12.122;2024-02-26T05:34:10;100797.16;;;3.95
20490;BMP280;10403;54.092;12.122;2024-02-26T05:36:37;100803.13;;;3.92
20490;BMP280;10403;54.092;12.122;2024-02-26T05:39:05;100807.44;;;3.90
20490;BMP280;10403;54.092;12.122;2024-02-26T05:41:33;100813.41;;;3.86
20490;BMP280;10403;54.092;12.122;2024-02-26T05:44:00;100816.00;;;3.86
20490;BMP280;10403;54.092;12.122;2024-02-26T05:46:28;100822.03;;;3.85
20490;BMP280;10403;54.092;12.122;2024-02-26T05:48:55;100829.75;;;3.84
20490;BMP280;10403;54.092;12.122;2024-02-26T05:51:22;100835.81;;;3.84
20490;BMP280;10403;54.092;12.122;2024-02-26T05:53:49;100839.25;;;3.85
20490;BMP280;10403;54.092;12.122;2024-02-26T05:56:22;100836.69;;;3.86
20490;BMP280;10403;54.092;12.122;2024-02-26T05:58:50;100846.22;;;3.87
20490;BMP280;10403;54.092;12.122;2024-02-26T06:01:19;100842.78;;;3.88
20490;BMP280;10403;54.092;12.122;2024-02-26T06:03:46;100841.03;;;3.87
20490;BMP280;10403;54.092;12.122;2024-02-26T06:06:13;100854.91;;;3.92
20490;BMP280;10403;54.092;12.122;2024-02-26T06:08:43;100856.63;;;3.93
20490;BMP280;10403;54.092;12.122;2024-02-26T06:11:10;100856.66;;;3.95
20490;BMP280;10403;54.092;12.122;2024-02-26T06:13:37;100860.13;;;3.95
20490;BMP280;10403;54.092;12.122;2024-02-26T06:16:05;100856.69;;;3.96
20490;BMP280;10403;54.092;12.122;2024-02-26T06:18:32;100865.31;;;3.95
20490;BMP280;10403;54.092;12.122;2024-02-26T06:21:00;100872.25;;;3.98
20490;BMP280;10403;54.092;12.122;2024-02-26T06:23:27;100861.81;;;3.93
20490;BMP280;10403;54.092;12.122;2024-02-26T06:25:54;100864.47;;;3.98
20490;BMP280;10403;54.092;12.122;2024-02-26T06:28:22;100877.47;;;4.02
20490;BMP280;10403;54.092;12.122;2024-02-26T06:30:49;100886.13;;;4.04
20490;BMP280;10403;54.092;12.122;2024-02-26T06:33:17;100861.91;;;3.99
20490;BMP280;10403;54.092;12.122;2024-02-26T06:35:45;100874.88;;;4.01
20490;BMP280;10403;54.092;12.122;2024-02-26T06:38:12;100881.91;;;4.09
20490;BMP280;10403;54.092;12.122;2024-02-26T06:40:40;100887.09;;;4.09
20490;BMP280;10403;54.092;12.122;2024-02-26T06:43:08;100892.28;;;4.09
20490;BMP280;10403;54.092;12.122;2024-02-26T06:45:35;100891.34;;;4.06
20490;BMP280;10403;54.092;12.122;2024-02-26T06:48:03;100906.91;;;4.07
20490;BMP280;10403;54.092;12.122;2024-02-26T06:50:30;100900.84;;;4.07
20490;BMP280;10403;54.092;12.122;2024-02-26T06:52:58;100903.41;;;4.05
20490;BMP280;10403;54.092;12.122;2024-02-26T06:55:25;100905.97;;;4.04
20490;BMP280;10403;54.092;12.122;2024-02-26T06:57:52;100901.59;;;3.98
20490;BMP280;10403;54.092;12.122;2024-02-26T07:00:20;100913.69;;;3.99
20490;BMP280;10403;54.092;12.122;2024-02-26T07:02:47;100919.66;;;3.95
20490;BMP280;10403;54.092;12.122;2024-02-26T07:05:14;100923.97;;;3.96
20490;BMP280;10403;54.092;12.122;2024-02-26T07:07:42;100925.69;;;3.96
20490;BMP280;10403;54.092;12.122;2024-02-26T07:10:10;100937.00;;;4.01
20490;BMP280;10403;54.092;12.122;2024-02-26T07:12:39;100932.69;;;4.03
20490;BMP280;10403;54.092;12.122;2024-02-26T07:15:09;100924.97;;;4.04
20490;BMP280;10403;54.092;12.122;2024-02-26T07:17:37;100935.44;;;4.12
20490;BMP280;10403;54.092;12.122;2024-02-26T07:20:07;100932.88;;;4.14
20490;BMP280;10403;54.092;12.122;2024-02-26T07:22:36;100934.63;;;4.15
20490;BMP280;10403;54.092;12.122;2024-02-26T07:25:04;100922.50;;;4.11
20490;BMP280;10403;54.092;12.122;2024-02-26T07:27:34;100935.56;;;4.21
20490;BMP280;10403;54.092;12.122;2024-02-26T07:30:01;100939.09;;;4.26
20490;BMP280;10403;54.092;12.122;2024-02-26T07:32:28;100935.72;;;4.30
20490;BMP280;10403;54.092;12.122;2024-02-26T07:34:55;100918.34;;;4.23
20490;BMP280;10403;54.092;12.122;2024-02-26T07:37:23;100933.19;;;4.35
20490;BMP280;10403;54.092;12.122;2024-02-26T07:39:50;100930.59;;;4.35
20490;BMP280;10403;54.092;12.122;2024-02-26T07:42:17;100934.94;;;4.36
20490;BMP280;10403;54.092;12.122;2024-02-26T07:44:44;100935.81;;;4.38
20490;BMP280;10403;54.092;12.122;2024-02-26T07:47:12;100938.41;;;4.38
20490;BMP280;10403;54.092;12.122;2024-02-26T07:49:40;100936.69;;;4.38
20490;BMP280;10403;54.092;12.122;2024-02-26T07:52:08;100934.19;;;4.44
20490;BMP280;10403;54.092;12.122;2024-02-26T07:54:35;100926.38;;;4.43
20490;BMP280;10403;54.092;12.122;2024-02-26T07:57:02;100941.19;;;4.52
20490;BMP280;10403;54.092;12.122;2024-02-26T07:59:32;100931.66;;;4.49
20490;BMP280;10403;54.092;12.122;2024-02-26T08:02:00;100939.59;;;4.63
20490;BMP280;10403;54.092;12.122;2024-02-26T08:04:30;100939.69;;;4.70
20490;BMP280;10403;54.092;12.122;2024-02-26T08:06:58;100943.22;;;4.75
20490;BMP280;10403;54.092;12.122;2024-02-26T08:09:25;100945.03;;;4.79
20490;BMP280;10403;54.092;12.122;2024-02-26T08:11:53;100947.63;;;4.82
20490;BMP280;10403;54.092;12.122;2024-02-26T08:14:20;100951.13;;;4.84
20490;BMP280;10403;54.092;12.122;2024-02-26T08:16:48;100946.84;;;4.88
20490;BMP280;10403;54.092;12.122;2024-02-26T08:19:15;100962.44;;;4.91
20490;BMP280;10403;54.092;12.122;2024-02-26T08:21:44;100958.97;;;4.92
20490;BMP280;10403;54.092;12.122;2024-02-26T08:24:12;100962.44;;;4.93
20490;BMP280;10403;54.092;12.122;2024-02-26T08:26:39;100950.28;;;4.87
20490;BMP280;10403;54.092;12.122;2024-02-26T08:29:06;100970.31;;;4.99
20490;BMP280;10403;54.092;12.122;2024-02-26T08:31:33;100959.09;;;4.98
20490;BMP280;10403;54.092;12.122;2024-02-26T08:34:04;100969.50;;;5.03
20490;BMP280;10403;54.092;12.122;2024-02-26T08:36:34;100968.72;;;5.08
20490;BMP280;10403;54.092;12.122;2024-02-26T08:39:02;100973.88;;;5.10
20490;BMP280;10403;54.092;12.122;2024-02-26T08:41:29;100986.03;;;5.14
20490;BMP280;10403;54.092;12.122;2024-02-26T08:43:57;100986.94;;;5.16
20490;BMP280;10403;54.092;12.122;2024-02-26T08:46:25;100981.81;;;5.19
20490;BMP280;10403;54.092;12.122;2024-02-26T08:48:52;100993.09;;;5.24
20490;BMP280;10403;54.092;12.122;2024-02-26T08:51:20;101001.78;;;5.29
20490;BMP280;10403;54.092;12.122;2024-02-26T08:53:47;100994.91;;;5.33
20490;BMP280;10403;54.092;12.122;2024-02-26T08:56:16;100994.09;;;5.37
20490;BMP280;10403;54.092;12.122;2024-02-26T08:58:47;100984.59;;;5.40
20490;BMP280;10403;54.092;12.122;2024-02-26T09:01:16;100996.81;;;5.47
20490;BMP280;10403;54.092;12.122;2024-02-26T09:03:43;100995.09;;;5.49
20490;BMP280;10403;54.092;12.122;2024-02-26T09:06:15;101005.53;;;5.54
20490;BMP280;10403;54.092;12.122;2024-02-26T09:08:42;100992.56;;;5.54
20490;BMP280;10403;54.092;12.122;2024-02-26T09:11:10;101003.88;;;5.64
20490;BMP280;10403;54.092;12.122;2024-02-26T09:13:37;100998.75;;;5.67
20490;BMP280;10403;54.092;12.122;2024-02-26T09:16:06;101009.19;;;5.74
20490;BMP280;10403;54.092;12.122;2024-02-26T09:18:33;100999.69;;;5.76
20490;BMP280;10403;54.092;12.122;2024-02-26T09:21:05;101004.97;;;5.85
20490;BMP280;10403;54.092;12.122;2024-02-26T09:23:33;101011.13;;;5.92
20490;BMP280;10403;54.092;12.122;2024-02-26T09:26:02;101012.03;;;5.96
20490;BMP280;10403;54.092;12.122;2024-02-26T09:28:30;101011.19;;;5.97
20490;BMP280;10403;54.092;12.122;2024-02-26T09:31:02;101000.72;;;5.92
20490;BMP280;10403;54.092;12.122;2024-02-26T09:33:29;101011.22;;;6.04
20490;BMP280;10403;54.092;12.122;2024-02-26T09:35:56;101007.81;;;6.11
20490;BMP280;10403;54.092;12.122;2024-02-26T09:38:24;101013.06;;;6.14
20490;BMP280;10403;54.092;12.122;2024-02-26T09:40:51;101025.19;;;6.18
20490;BMP280;10403;54.092;12.122;2024-02-26T09:43:22;101024.34;;;6.21
20490;BMP280;10403;54.092;12.122;2024-02-26T09:45:54;101012.19;;;6.15
20490;BMP280;10403;54.092;12.122;2024-02-26T09:48:23;101024.44;;;6.31
20490;BMP280;10403;54.092;12.122;2024-02-26T09:50:52;101028.78;;;6.37
20490;BMP280;10403;54.092;12.122;2024-02-26T09:53:22;101023.63;;;6.39
20490;BMP280;10403;54.092;12.122;2024-02-26T09:55:49;101030.63;;;6.46
20490;BMP280;10403;54.092;12.122;2024-02-26T09:58:17;101023.72;;;6.51
20490;BMP280;10403;54.092;12.122;2024-02-26T10:00:52;101028.06;;;6.56
20490;BMP280;10403;54.092;12.122;2024-02-26T10:03:22;101024.66;;;6.62
20490;BMP280;10403;54.092;12.122;2024-02-26T10:05:51;101026.41;;;6.67
20490;BMP280;10403;54.092;12.122;2024-02-26T10:08:23;101022.97;;;6.72
20490;BMP280;10403;54.092;12.122;2024-02-26T10:10:51;101032.53;;;6.77
20490;BMP280;10403;54.092;12.122;2024-02-26T10:13:19;101029.06;;;6.78
20490;BMP280;10403;54.092;12.122;2024-02-26T10:15:47;101043.00;;;6.86
20490;BMP280;10403;54.092;12.122;2024-02-26T10:18:15;101044.75;;;6.90
20490;BMP280;10403;54.092;12.122;2024-02-26T10:20:42;101044.78;;;6.96
20490;BMP280;10403;54.092;12.122;2024-02-26T10:23:10;101045.69;;;7.01
20490;BMP280;10403;54.092;12.122;2024-02-26T10:25:38;101046.59;;;7.10
20490;BMP280;10403;54.092;12.122;2024-02-26T10:28:19;101053.56;;;7.17
20490;BMP280;10403;54.092;12.122;2024-02-26T10:30:46;101051.88;;;7.22
20490;BMP280;10403;54.092;12.122;2024-02-26T10:33:14;101044.09;;;7.29
20490;BMP280;10403;54.092;12.122;2024-02-26T10:35:48;101055.38;;;7.36
20490;BMP280;10403;54.092;12.122;2024-02-26T10:38:15;101054.53;;;7.41
20490;BMP280;10403;54.092;12.122;2024-02-26T10:40:49;101058.91;;;7.47
20490;BMP280;10403;54.092;12.122;2024-02-26T10:43:17;101064.13;;;7.55
20490;BMP280;10403;54.092;12.122;2024-02-26T10:45:45;101057.19;;;7.58
20490;BMP280;10403;54.092;12.122;2024-02-26T10:48:15;101058.06;;;7.65
20490;BMP280;10403;54.092;12.122;2024-02-26T10:50:43;101056.38;;;7.71
20490;BMP280;10403;54.092;12.122;2024-02-26T10:53:17;101062.44;;;7.75
20490;BMP280;10403;54.092;12.122;2024-02-26T10:55:54;101051.16;;;7.77
20490;BMP280;10403;54.092;12.122;2024-02-26T10:58:23;101063.34;;;7.82
20490;BMP280;10403;54.092;12.122;2024-02-26T11:00:52;101061.59;;;7.80
20490;BMP280;10403;54.092;12.122;2024-02-26T11:03:21;101059.88;;;7.83
20490;BMP280;10403;54.092;12.122;2024-02-26T11:05:50;101069.44;;;7.93
20490;BMP280;10403;54.092;12.122;2024-02-26T11:08:21;101072.91;;;7.95
20490;BMP280;10403;54.092;12.122;2024-02-26T11:10:53;101072.91;;;7.98
20490;BMP280;10403;54.092;12.122;2024-02-26T11:13:23;101071.19;;;8.00
20490;BMP280;10403;54.092;12.122;2024-02-26T11:15:55;101073.81;;;8.03
20490;BMP280;10403;54.092;12.122;2024-02-26T11:18:27;101077.28;;;8.06
20490;BMP280;10403;54.092;12.122;2024-02-26T11:20:55;101077.31;;;8.12
20490;BMP280;10403;54.092;12.122;2024-02-26T11:23:24;101079.91;;;8.18
20490;BMP280;10403;54.092;12.122;2024-02-26T11:25:55;101078.16;;;8.25
20490;BMP280;10403;54.092;12.122;2024-02-26T11:28:25;101082.53;;;8.31
20490;BMP280;10403;54.092;12.122;2024-02-26T11:30:55;101072.13;;;8.32
20490;BMP280;10403;54.092;12.122;2024-02-26T11:33:24;101060.81;;;8.30
20490;BMP280;10403;54.092;12.122;2024-02-26T11:35:55;101065.16;;;8.37
20490;BMP280;10403;54.092;12.122;2024-02-26T11:38:26;101070.41;;;8.42
20490;BMP280;10403;54.092;12.122;2024-02-26T11:40:54;101077.34;;;8.47
20490;BMP280;10403;54.092;12.122;2024-02-26T11:43:57;101071.25;;;8.50
20490;BMP280;10403;54.092;12.122;2024-02-26T11:46:42;101065.16;;;8.48
20490;BMP280;10403;54.092;12.122;2024-02-26T11:49:30;101070.38;;;8.49
20490;BMP280;10403;54.092;12.122;2024-02-26T11:51:58;101082.56;;;8.58
20490;BMP280;10403;54.092;12.122;2024-02-26T11:54:47;101065.16;;;8.57
20490;BMP280;10403;54.092;12.122;2024-02-26T11:57:39;101082.53;;;8.67
20490;BMP280;10403;54.092;12.122;2024-02-26T12:03:00;101079.06;;;8.76
20490;BMP280;10403;54.092;12.122;2024-02-26T12:05:33;101080.78;;;8.78
20490;BMP280;10403;54.092;12.122;2024-02-26T12:08:07;101081.63;;;8.83
20490;BMP280;10403;54.092;12.122;2024-02-26T12:10:37;101076.44;;;8.85
20490;BMP280;10403;54.092;12.122;2024-02-26T12:13:12;101078.16;;;8.89
20490;BMP280;10403;54.092;12.122;2024-02-26T12:15:57;101084.22;;;8.94
20490;BMP280;10403;54.092;12.122;2024-02-26T12:18:26;101067.72;;;8.95
20490;BMP280;10403;54.092;12.122;2024-02-26T12:21:04;101075.53;;;8.94
20490;BMP280;10403;54.092;12.122;2024-02-26T12:23:32;101088.59;;;8.98
20490;BMP280;10403;54.092;12.122;2024-02-26T12:26:00;101090.31;;;8.96
20490;BMP280;10403;54.092;12.122;2024-02-26T12:28:33;101087.72;;;8.93
20490;BMP280;10403;54.092;12.122;2024-02-26T12:31:01;101085.13;;;8.90
20490;BMP280;10403;54.092;12.122;2024-02-26T12:33:30;101097.31;;;8.91
20490;BMP280;10403;54.092;12.122;2024-02-26T12:35:58;101089.47;;;8.83
20490;BMP280;10403;54.092;12.122;2024-02-26T12:38:27;101099.91;;;8.88
20490;BMP280;10403;54.092;12.122;2024-02-26T12:40:54;101094.69;;;8.85
20490;BMP280;10403;54.092;12.122;2024-02-26T12:43:22;101097.28;;;8.85
20490;BMP280;10403;54.092;12.122;2024-02-26T12:45:50;101099.03;;;8.84
20490;BMP280;10403;54.092;12.122;2024-02-26T12:48:17;101108.59;;;8.84
20490;BMP280;10403;54.092;12.122;2024-02-26T12:50:46;101106.84;;;8.83
20490;BMP280;10403;54.092;12.122;2024-02-26T12:53:17;101116.41;;;8.82
20490;BMP280;10403;54.092;12.122;2024-02-26T12:55:45;101117.28;;;8.81
20490;BMP280;10403;54.092;12.122;2024-02-26T12:58:14;101119.94;;;8.80
20490;BMP280;10403;54.092;12.122;2024-02-26T13:00:42;101122.53;;;8.80
20490;BMP280;10403;54.092;12.122;2024-02-26T13:03:10;101122.53;;;8.77
20490;BMP280;10403;54.092;12.122;2024-02-26T13:05:38;101132.09;;;8.78
20490;BMP280;10403;54.092;12.122;2024-02-26T13:08:06;101121.66;;;8.70
20490;BMP280;10403;54.092;12.122;2024-02-26T13:10:36;101121.66;;;8.72
20490;BMP280;10403;54.092;12.122;2024-02-26T13:13:05;101136.44;;;8.74
20490;BMP280;10403;54.092;12.122;2024-02-26T13:15:32;101141.66;;;8.77
20490;BMP280;10403;54.092;12.122;2024-02-26T13:18:13;101142.53;;;8.75
20490;BMP280;10403;54.092;12.122;2024-02-26T13:20:41;101150.34;;;8.73
20490;BMP280;10403;54.092;12.122;2024-02-26T13:23:12;101154.69;;;8.73
20490;BMP280;10403;54.092;12.122;2024-02-26T13:25:40;101159.06;;;8.71
20490;BMP280;10403;54.092;12.122;2024-02-26T13:28:18;101117.31;;;8.45
20490;BMP280;10403;54.092;12.122;2024-02-26T13:30:54;101140.78;;;8.57
20490;BMP280;10403;54.092;12.122;2024-02-26T13:33:28;101161.66;;;8.66
20490;BMP280;10403;54.092;12.122;2024-02-26T13:35:58;101165.97;;;8.63
20490;BMP280;10403;54.092;12.122;2024-02-26T13:38:27;101169.47;;;8.60
20490;BMP280;10403;54.092;12.122;2024-02-26T13:40:56;101165.09;;;8.53
20490;BMP280;10403;54.092;12.122;2024-02-26T13:43:26;101175.53;;;8.54
20490;BMP280;10403;54.092;12.122;2024-02-26T13:45:54;101170.31;;;8.53
20490;BMP280;10403;54.092;12.122;2024-02-26T13:48:21;101169.47;;;8.49
20490;BMP280;10403;54.092;12.122;2024-02-26T13:50:50;101164.22;;;8.43
20490;BMP280;10403;54.092;12.122;2024-02-26T13:53:20;101182.50;;;8.49
20490;BMP280;10403;54.092;12.122;2024-02-26T13:55:50;101175.53;;;8.45
20490;BMP280;10403;54.092;12.122;2024-02-26T13:58:18;101191.19;;;8.45
20490;BMP280;10403;54.092;12.122;2024-02-26T14:00:50;101183.34;;;8.45
20490;BMP280;10403;54.092;12.122;2024-02-26T14:03:17;101186.81;;;8.44
20490;BMP280;10403;54.092;12.122;2024-02-26T14:05:45;101179.88;;;8.40
20490;BMP280;10403;54.092;12.122;2024-02-26T14:08:15;101176.38;;;8.35
20490;BMP280;10403;54.092;12.122;2024-02-26T14:10:42;101188.56;;;8.45
20490;BMP280;10403;54.092;12.122;2024-02-26T14:13:10;101192.06;;;8.47